createdAt,value
2023-03-27T08:19:19.067Z,6.83
2023-03-27T08:21:51.019Z,7.68
2023-03-27T08:24:18.289Z,7.72
2023-03-27T08:27:20.497Z,8.23
2023-03-27T08:29:47.874Z,9.00
2023-03-27T08:32:14.757Z,9.66
2023-03-27T08:34:43.614Z,9.24
2023-03-27T08:37:10.568Z,10.20
2023-03-27T08:39:58.991Z,9.43
2023-03-27T08:42:34.703Z,9.84
2023-03-27T08:45:08.677Z,9.47
2023-03-27T08:47:47.777Z,9.34
2023-03-27T08:50:44.589Z,9.26
2023-03-27T08:53:31.093Z,9.78
2023-03-27T08:55:59.556Z,9.30
2023-03-27T08:58:34.827Z,9.39
2023-03-27T09:01:45.761Z,9.08
2023-03-27T09:04:41.336Z,9.86
2023-03-27T09:07:20.276Z,9.22
2023-03-27T09:10:38.197Z,9.34
2023-03-27T09:13:25.225Z,9.44
2023-03-27T09:16:02.515Z,10.40
2023-03-27T09:18:37.043Z,10.32
2023-03-27T09:21:18.229Z,10.98
2023-03-27T09:23:46.685Z,11.24
2023-03-27T09:26:36.532Z,9.67
2023-03-27T09:29:20.840Z,10.65
2023-03-27T09:31:57.778Z,11.58
2023-03-27T09:34:30.731Z,11.26
2023-03-27T09:36:59.183Z,10.95
2023-03-27T09:39:30.293Z,11.82
2023-03-27T09:42:19.174Z,12.27
2023-03-27T09:44:50.615Z,12.04
2023-03-27T09:47:23.400Z,11.21
2023-03-27T09:49:56.871Z,11.45
2023-03-27T09:52:42.081Z,11.40
2023-03-27T09:55:35.608Z,10.20
2023-03-27T09:58:23.897Z,9.75
2023-03-27T10:01:16.767Z,9.80
2023-03-27T10:03:53.277Z,10.00
2023-03-27T10:06:38.901Z,10.42
2023-03-27T10:09:26.756Z,10.97
2023-03-27T10:12:24.195Z,11.21
2023-03-27T10:14:52.830Z,11.24
2023-03-27T10:17:40.290Z,11.03
2023-03-27T10:20:17.865Z,10.93
2023-03-27T10:23:01.022Z,10.53
2023-03-27T10:25:38.874Z,10.09
2023-03-27T10:28:29.591Z,10.47
2023-03-27T10:31:38.273Z,10.84
2023-03-27T10:34:36.947Z,10.65
2023-03-27T10:37:28.702Z,10.62
2023-03-27T10:40:20.006Z,10.63
2023-03-27T10:42:50.486Z,11.18
2023-03-27T10:45:18.847Z,10.93
2023-03-27T10:48:00.639Z,11.06
2023-03-27T10:50:33.831Z,11.30
2023-03-27T10:53:15.004Z,10.93
2023-03-27T10:55:58.241Z,11.03
2023-03-27T10:58:34.267Z,11.90
2023-03-27T11:01:11.405Z,12.68
2023-03-27T11:03:53.438Z,13.81
2023-03-27T11:06:23.396Z,14.94
2023-03-27T11:09:02.206Z,14.84
2023-03-27T11:11:34.152Z,12.77
2023-03-27T11:14:04.069Z,12.41
2023-03-27T11:16:41.760Z,11.99
2023-03-27T11:19:27.231Z,11.94
2023-03-27T11:22:15.701Z,11.29
2023-03-27T11:25:07.382Z,11.03
2023-03-27T11:27:56.177Z,10.34
2023-03-27T11:30:44.017Z,10.40
2023-03-27T11:33:29.986Z,11.45
2023-03-27T11:36:27.401Z,12.29
2023-03-27T11:39:06.738Z,14.40
2023-03-27T11:41:34.127Z,15.44
2023-03-27T11:44:02.023Z,15.95
2023-03-27T11:47:34.962Z,16.80
2023-03-27T11:50:15.961Z,15.68
2023-03-27T11:52:52.417Z,14.84
2023-03-27T11:55:52.415Z,12.89
2023-03-27T11:59:02.856Z,13.47
2023-03-27T12:01:49.707Z,12.25
2023-03-27T12:04:24.282Z,14.82
2023-03-27T12:07:36.092Z,17.54
2023-03-27T12:10:15.327Z,19.14
2023-03-27T12:13:47.776Z,19.63
2023-03-27T12:16:40.556Z,18.91
2023-03-27T12:19:38.281Z,18.46
2023-03-27T12:22:26.223Z,16.73
2023-03-27T12:25:27.408Z,15.90
2023-03-27T12:28:23.705Z,15.52
2023-03-27T12:31:25.064Z,15.58
2023-03-27T12:34:00.254Z,16.56
2023-03-27T12:36:28.141Z,17.38
2023-03-27T12:38:56.074Z,17.12
2023-03-27T12:41:26.094Z,15.93
2023-03-27T12:44:02.147Z,14.44
2023-03-27T12:46:41.528Z,14.04
2023-03-27T12:49:12.193Z,13.08
2023-03-27T12:51:52.071Z,13.72
2023-03-27T12:55:06.394Z,14.54
2023-03-27T12:58:10.285Z,13.51
2023-03-27T13:01:00.830Z,13.24
2023-03-27T13:04:09.748Z,12.92
2023-03-27T13:06:39.918Z,11.60
2023-03-27T13:09:27.766Z,9.55
2023-03-27T13:12:21.685Z,11.18
2023-03-27T13:15:08.777Z,13.29
2023-03-27T13:17:42.365Z,14.64
2023-03-27T13:20:12.269Z,16.84
2023-03-27T13:23:10.473Z,18.49
2023-03-27T13:25:49.425Z,19.89
2023-03-27T13:28:25.342Z,20.53
2023-03-27T13:31:01.242Z,20.26
2023-03-27T13:33:45.709Z,20.70
2023-03-27T13:36:23.074Z,21.86
2023-03-27T13:38:53.198Z,20.60
2023-03-27T13:41:48.690Z,17.95
2023-03-27T13:44:43.860Z,16.09
2023-03-27T13:47:54.562Z,15.05
2023-03-27T13:50:25.100Z,14.45
2023-03-27T13:53:14.569Z,13.87
2023-03-27T13:56:12.441Z,13.79
2023-03-27T13:59:22.484Z,13.07
2023-03-27T14:02:09.979Z,11.22
2023-03-27T14:04:57.560Z,9.64
2023-03-27T14:08:08.136Z,9.79
2023-03-27T14:11:37.743Z,10.05
2023-03-27T14:14:23.784Z,9.24
2023-03-27T14:17:31.372Z,8.69
2023-03-27T14:20:07.669Z,8.44
2023-03-27T14:22:57.130Z,9.05
2023-03-27T14:25:44.010Z,8.66
2023-03-27T14:28:49.577Z,8.97
2023-03-27T14:31:19.367Z,8.34
2023-03-27T14:34:16.056Z,9.30
2023-03-27T14:36:47.746Z,8.91
2023-03-27T14:39:22.810Z,9.01
2023-03-27T14:41:58.396Z,9.39
2023-03-27T14:44:29.654Z,9.43
2023-03-27T14:47:09.423Z,9.10
2023-03-27T14:49:47.080Z,9.34
2023-03-27T14:52:25.238Z,9.28
2023-03-27T14:55:18.246Z,9.39
2023-03-27T14:57:50.607Z,9.15
2023-03-27T15:00:20.925Z,9.29
2023-03-27T15:02:50.327Z,9.32
2023-03-27T15:05:20.031Z,9.30
2023-03-27T15:07:53.107Z,9.34
2023-03-27T15:10:30.732Z,9.29
2023-03-27T15:13:10.586Z,9.28
2023-03-27T15:15:43.383Z,9.30
2023-03-27T15:18:15.735Z,9.30
2023-03-27T15:20:43.703Z,9.30
2023-03-27T15:23:20.543Z,9.22
2023-03-27T15:25:56.587Z,9.21
2023-03-27T15:28:29.180Z,9.20
2023-03-27T15:30:58.385Z,9.17
2023-03-27T15:33:35.391Z,9.18
2023-03-27T15:36:05.983Z,9.00
2023-03-27T15:38:34.782Z,9.16
2023-03-27T15:41:17.343Z,9.21
2023-03-27T15:43:44.615Z,9.14
2023-03-27T15:46:20.035Z,9.10
2023-03-27T15:48:55.527Z,9.04
2023-03-27T15:51:22.599Z,9.08
2023-03-27T15:53:56.042Z,9.05
2023-03-27T15:56:28.028Z,9.02
2023-03-27T15:58:58.223Z,9.03
2023-03-27T16:01:34.850Z,9.02
2023-03-27T16:04:06.762Z,9.02
2023-03-27T16:06:37.779Z,8.62
2023-03-27T16:09:10.392Z,8.81
2023-03-27T16:11:45.537Z,8.84
2023-03-27T16:14:21.576Z,8.74
2023-03-27T16:16:49.941Z,8.73
2023-03-27T16:19:16.735Z,8.38
2023-03-27T16:21:57.000Z,7.75
2023-03-27T16:24:24.128Z,7.96
2023-03-27T16:26:52.626Z,8.28
2023-03-27T16:29:21.300Z,7.81
2023-03-27T16:31:48.145Z,8.08
2023-03-27T16:34:22.165Z,8.09
2023-03-27T16:36:49.906Z,7.89
2023-03-27T16:39:16.722Z,8.13
2023-03-27T16:41:43.666Z,8.22
2023-03-27T16:44:10.494Z,7.83
2023-03-27T16:46:37.558Z,7.37
2023-03-27T16:49:04.386Z,7.61
2023-03-27T16:51:31.352Z,7.66
2023-03-27T16:53:58.193Z,7.65
2023-03-27T16:56:25.147Z,7.42
2023-03-27T16:58:51.978Z,7.46
2023-03-27T17:01:18.821Z,7.12
2023-03-27T17:03:45.966Z,7.46
2023-03-27T17:06:12.939Z,7.69
2023-03-27T17:08:39.840Z,7.61
2023-03-27T17:11:12.072Z,7.68
2023-03-27T17:13:42.902Z,7.50
2023-03-27T17:16:10.383Z,7.38
2023-03-27T17:18:37.552Z,7.37
2023-03-27T17:21:04.539Z,7.58
2023-03-27T17:23:31.958Z,7.23
2023-03-27T17:26:03.033Z,7.45
2023-03-27T17:28:30.606Z,7.37
2023-03-27T17:31:04.574Z,7.20
2023-03-27T17:33:32.772Z,7.33
2023-03-27T17:35:59.871Z,7.28
2023-03-27T17:38:26.994Z,7.32
2023-03-27T17:40:54.020Z,7.18
2023-03-27T17:43:20.915Z,7.27
2023-03-27T17:45:48.207Z,7.24
2023-03-27T17:48:16.135Z,6.82
2023-03-27T17:50:49.839Z,7.03
2023-03-27T17:53:26.870Z,7.15
2023-03-27T17:55:53.873Z,7.19
2023-03-27T17:59:46.586Z,6.94
2023-03-27T18:02:19.441Z,6.94
2023-03-27T18:04:52.275Z,6.99
2023-03-27T18:07:23.410Z,6.87
2023-03-27T18:09:50.603Z,6.93
2023-03-27T18:12:17.768Z,7.04
2023-03-27T18:14:46.759Z,6.93
2023-03-27T18:17:15.999Z,6.81
2023-03-27T18:19:42.912Z,6.87
2023-03-27T18:22:10.814Z,6.43
2023-03-27T18:24:37.730Z,6.60
2023-03-27T18:27:04.516Z,6.73
2023-03-27T18:29:31.385Z,6.17
2023-03-27T18:31:58.351Z,6.30
2023-03-27T18:34:25.556Z,6.59
2023-03-27T18:36:52.967Z,6.37
2023-03-27T18:39:19.782Z,6.42
2023-03-27T18:41:46.704Z,6.36
2023-03-27T18:44:13.890Z,6.21
2023-03-27T18:46:41.015Z,6.30
2023-03-27T18:49:21.532Z,6.29
2023-03-27T18:51:51.477Z,6.37
2023-03-27T18:54:18.320Z,6.18
2023-03-27T18:56:45.213Z,6.35
2023-03-27T18:59:12.053Z,6.01
2023-03-27T19:01:39.066Z,5.95
2023-03-27T19:04:06.045Z,6.07
2023-03-27T19:06:33.808Z,6.02
2023-03-27T19:09:01.101Z,6.01
2023-03-27T19:11:27.921Z,5.93
2023-03-27T19:14:07.256Z,5.89
2023-03-27T19:16:43.139Z,5.78
2023-03-27T19:19:29.365Z,5.55
2023-03-27T19:22:14.335Z,5.51
2023-03-27T19:25:04.334Z,5.74
2023-03-27T19:27:38.622Z,5.60
2023-03-27T19:30:07.953Z,5.50
2023-03-27T19:32:34.928Z,5.49
2023-03-27T19:35:02.185Z,5.51
2023-03-27T19:37:30.008Z,5.06
2023-03-27T19:39:58.993Z,5.30
2023-03-27T19:42:28.644Z,5.55
2023-03-27T19:44:55.862Z,5.67
2023-03-27T19:47:22.765Z,5.42
2023-03-27T19:49:49.630Z,5.50
2023-03-27T19:52:20.294Z,5.45
2023-03-27T19:54:47.154Z,5.38
2023-03-27T19:57:14.386Z,5.26
2023-03-27T19:59:41.319Z,5.23
2023-03-27T20:02:11.218Z,5.22
2023-03-27T20:04:37.994Z,5.11
2023-03-27T20:07:07.193Z,4.95
2023-03-27T20:09:34.636Z,4.98
2023-03-27T20:12:01.620Z,5.28
2023-03-27T20:14:29.262Z,5.31
2023-03-27T20:16:56.199Z,5.23
2023-03-27T20:19:27.031Z,5.14
2023-03-27T20:21:55.665Z,5.23
2023-03-27T20:24:22.504Z,5.14
2023-03-27T20:26:57.296Z,4.96
2023-03-27T20:29:26.301Z,4.99
2023-03-27T20:31:53.229Z,5.11
2023-03-27T20:34:22.857Z,4.82
2023-03-27T20:36:53.551Z,4.72
2023-03-27T20:39:33.779Z,4.72
2023-03-27T20:42:00.588Z,4.52
2023-03-27T20:44:35.629Z,4.34
2023-03-27T20:47:11.223Z,4.50
2023-03-27T20:49:44.978Z,4.76
2023-03-27T20:52:14.789Z,4.92
2023-03-27T20:54:42.067Z,4.48
2023-03-27T20:57:11.441Z,4.68
2023-03-27T20:59:38.523Z,4.53
2023-03-27T21:02:05.368Z,4.05
2023-03-27T21:04:32.492Z,3.99
2023-03-27T21:06:59.325Z,4.53
2023-03-27T21:09:27.282Z,4.21
2023-03-27T21:11:55.380Z,4.42
2023-03-27T21:14:22.772Z,4.50
2023-03-27T21:16:50.242Z,4.45
2023-03-27T21:19:19.749Z,4.00
2023-03-27T21:21:46.558Z,4.53
2023-03-27T21:24:13.603Z,4.45
2023-03-27T21:26:40.459Z,4.08
2023-03-27T21:29:10.834Z,4.34
2023-03-27T21:31:42.234Z,4.18
2023-03-27T21:34:09.179Z,4.32
2023-03-27T21:36:38.195Z,4.29
2023-03-27T21:39:05.619Z,4.33
2023-03-27T21:41:32.600Z,4.28
2023-03-27T21:43:59.493Z,4.44
2023-03-27T21:46:26.605Z,4.01
2023-03-27T21:48:53.470Z,4.06
2023-03-27T21:51:20.480Z,4.14
2023-03-27T21:53:47.320Z,4.15
2023-03-27T21:56:14.305Z,4.38
2023-03-27T21:58:41.258Z,4.53
2023-03-27T22:01:08.459Z,4.51
2023-03-27T22:03:35.784Z,4.44
2023-03-27T22:06:11.839Z,4.55
2023-03-27T22:08:42.143Z,4.52
2023-03-27T22:11:11.203Z,4.30
2023-03-27T22:13:38.981Z,4.27
2023-03-27T22:16:14.983Z,3.98
2023-03-27T22:18:42.536Z,4.11
2023-03-27T22:21:29.612Z,4.24
2023-03-27T22:23:57.911Z,4.08
2023-03-27T22:26:27.395Z,3.98
2023-03-27T22:28:54.494Z,4.26
2023-03-27T22:31:22.541Z,4.31
2023-03-27T22:33:50.340Z,4.22
2023-03-27T22:36:17.453Z,4.43
2023-03-27T22:38:44.329Z,4.40
2023-03-27T22:41:12.242Z,4.26
2023-03-27T22:43:39.244Z,4.19
2023-03-27T22:46:14.458Z,4.17
2023-03-27T22:48:41.523Z,4.15
2023-03-27T22:51:09.815Z,4.01
2023-03-27T22:53:36.897Z,3.99
2023-03-27T22:56:04.521Z,3.66
2023-03-27T22:58:31.710Z,3.62
2023-03-27T23:00:58.687Z,3.19
2023-03-27T23:03:26.973Z,3.32
2023-03-27T23:05:54.861Z,3.49
2023-03-27T23:08:24.340Z,3.92
2023-03-27T23:10:59.642Z,4.07
2023-03-27T23:13:27.665Z,4.05
2023-03-27T23:15:54.770Z,4.08
2023-03-27T23:18:24.698Z,4.22
2023-03-27T23:20:59.890Z,4.17
2023-03-27T23:23:27.607Z,3.96
2023-03-27T23:25:55.610Z,3.91
2023-03-27T23:28:22.521Z,3.64
2023-03-27T23:31:01.029Z,3.93
2023-03-27T23:33:30.461Z,4.22
2023-03-27T23:36:09.055Z,3.99
2023-03-27T23:38:36.168Z,4.14
2023-03-27T23:41:03.957Z,4.28
2023-03-27T23:43:31.507Z,3.69
2023-03-27T23:46:01.353Z,4.01
2023-03-27T23:48:29.518Z,4.18
2023-03-27T23:50:57.238Z,4.08
2023-03-27T23:53:28.447Z,4.14
2023-03-27T23:55:56.976Z,4.16
2023-03-27T23:58:24.751Z,4.23
